Time;durP1;ratioP1;P1;durP2;ratioP2;P2;SDS_P1;SDS_P2;PMS_P1;PMS_P2;Temp;Humidity;BMP_temperature;BMP_pressure;BME280_temperature;BME280_humidity;BME280_pressure;Samples;Min_cycle;Max_cycle;Signal;HPM_P1;HPM_P2
2023/01/26 00:01:54;;;;;;;30.27;15.83;;;;;;;;;;4981105;28;20462;-65
2023/01/26 00:04:21;;;;;;;31.97;16.50;;;;;;;;;;4976756;28;20499;-64
2023/01/26 00:06:48;;;;;;;28.90;14.03;;;;;;;;;;4950385;28;20466;-65
2023/01/26 00:09:14;;;;;;;26.30;14.70;;;;;;;;;;4967329;28;20954;-64
2023/01/26 00:11:41;;;;;;;31.10;15.70;;;;;;;;;;4949074;28;20472;-65
2023/01/26 00:14:07;;;;;;;29.97;15.87;;;;;;;;;;4967250;28;20463;-65
2023/01/26 00:16:53;;;;;;;31.93;15.83;;;;;;;;;;4964779;28;20448;-65
2023/01/26 00:19:19;;;;;;;32.33;15.83;;;;;;;;;;4966994;28;20577;-64
2023/01/26 00:22:03;;;;;;;32.83;16.67;;;;;;;;;;4964748;28;20506;-65
2023/01/26 00:24:30;;;;;;;29.83;15.30;;;;;;;;;;4967301;28;20475;-65
2023/01/26 00:27:14;;;;;;;33.67;16.37;;;;;;;;;;4966390;28;20567;-65
2023/01/26 00:29:42;;;;;;;33.30;15.53;;;;;;;;;;4965615;28;20471;-65
2023/01/26 00:32:09;;;;;;;30.80;15.37;;;;;;;;;;4966908;28;20919;-65
2023/01/26 00:34:35;;;;;;;32.23;14.97;;;;;;;;;;4964842;28;20475;-65
2023/01/26 00:37:02;;;;;;;30.97;15.33;;;;;;;;;;4967978;28;20463;-65
2023/01/26 00:39:46;;;;;;;30.07;15.20;;;;;;;;;;4966269;28;20493;-65
2023/01/26 00:42:13;;;;;;;26.80;14.40;;;;;;;;;;4985542;28;20540;-65
2023/01/26 00:44:57;;;;;;;29.43;14.37;;;;;;;;;;4964270;28;20479;-64
2023/01/26 00:47:23;;;;;;;30.77;14.77;;;;;;;;;;4966887;28;20456;-64
2023/01/26 00:50:08;;;;;;;27.10;13.83;;;;;;;;;;4966239;28;20455;-65
2023/01/26 00:52:36;;;;;;;29.37;14.57;;;;;;;;;;4964562;28;20463;-65
2023/01/26 00:55:02;;;;;;;29.07;14.57;;;;;;;;;;4933483;28;20467;-65
2023/01/26 00:57:29;;;;;;;30.20;15.23;;;;;;;;;;4947225;28;20486;-65
2023/01/26 00:59:56;;;;;;;27.87;14.57;;;;;;;;;;4966667;28;20459;-64
2023/01/26 01:02:23;;;;;;;29.03;14.57;;;;;;;;;;4947626;28;21010;-65
2023/01/26 01:04:50;;;;;;;28.37;14.73;;;;;;;;;;4965139;28;20468;-64
2023/01/26 01:07:17;;;;;;;29.47;15.47;;;;;;;;;;4963497;28;20865;-64
2023/01/26 01:09:44;;;;;;;30.97;15.20;;;;;;;;;;4966337;28;20523;-64
2023/01/26 01:12:11;;;;;;;33.97;15.97;;;;;;;;;;4963310;28;20460;-64
2023/01/26 01:14:38;;;;;;;29.73;14.27;;;;;;;;;;4966622;28;22380;-65
2023/01/26 01:17:22;;;;;;;30.57;15.10;;;;;;;;;;4943895;28;20448;-64
2023/01/26 01:19:49;;;;;;;29.90;13.57;;;;;;;;;;4965845;28;20607;-65
2023/01/26 01:22:33;;;;;;;29.30;14.40;;;;;;;;;;4935094;28;20451;-65
2023/01/26 01:25:00;;;;;;;31.37;15.37;;;;;;;;;;4964992;28;20538;-64
2023/01/26 01:27:44;;;;;;;30.40;14.37;;;;;;;;;;4963594;28;20982;-65
2023/01/26 01:30:11;;;;;;;28.60;14.07;;;;;;;;;;4965506;28;20515;-64
2023/01/26 01:32:38;;;;;;;36.00;16.30;;;;;;;;;;4963136;28;20463;-64
2023/01/26 01:35:05;;;;;;;28.37;14.87;;;;;;;;;;4947740;28;20545;-64
2023/01/26 01:37:32;;;;;;;30.73;15.60;;;;;;;;;;4969713;28;20458;-65
2023/01/26 01:40:17;;;;;;;33.37;15.53;;;;;;;;;;4985056;28;20550;-65
2023/01/26 01:42:47;;;;;;;27.80;14.37;;;;;;;;;;4965429;28;20543;-65
2023/01/26 02:17:01;;;;;;;33.73;14.13;;;;;;;;;;4961617;28;20454;-65
2023/01/26 02:19:30;;;;;;;29.97;14.33;;;;;;;;;;4963722;28;20462;-65
2023/01/26 02:21:58;;;;;;;24.10;12.90;;;;;;;;;;4963369;28;20460;-65
2023/01/26 02:24:25;;;;;;;21.37;10.37;;;;;;;;;;4961773;28;20471;-65
2023/01/26 02:27:09;;;;;;;26.13;12.63;;;;;;;;;;4948126;28;20488;-65
2023/01/26 02:29:37;;;;;;;26.07;11.97;;;;;;;;;;4923409;28;21140;-65
2023/01/26 02:32:21;;;;;;;24.30;12.70;;;;;;;;;;4963541;28;20535;-65
2023/01/26 02:34:54;;;;;;;26.60;12.73;;;;;;;;;;4961041;28;20526;-65
2023/01/26 02:37:21;;;;;;;27.70;13.20;;;;;;;;;;4964343;28;20454;-65
2023/01/26 02:39:51;;;;;;;32.27;13.80;;;;;;;;;;4963645;28;20460;-65
2023/01/26 02:45:04;;;;;;;27.90;12.73;;;;;;;;;;4931965;28;20983;-65
2023/01/26 02:47:30;;;;;;;26.73;10.83;;;;;;;;;;4963226;28;20452;-65
2023/01/26 02:49:59;;;;;;;26.33;12.40;;;;;;;;;;4962765;28;20870;-64
2023/01/26 02:52:43;;;;;;;25.70;12.90;;;;;;;;;;4960418;28;20923;-64
2023/01/26 02:55:21;;;;;;;30.33;12.47;;;;;;;;;;4961562;28;20491;-64
2023/01/26 02:58:07;;;;;;;30.03;13.17;;;;;;;;;;4960847;28;20537;-65
2023/01/26 03:00:35;;;;;;;27.10;12.07;;;;;;;;;;4964317;28;20456;-65
2023/01/26 03:03:06;;;;;;;26.47;12.77;;;;;;;;;;4945118;28;20538;-65
2023/01/26 03:05:32;;;;;;;30.13;14.07;;;;;;;;;;4962677;28;20954;-65
2023/01/26 03:07:59;;;;;;;32.53;14.47;;;;;;;;;;4964153;28;20526;-65
2023/01/26 03:10:34;;;;;;;28.27;14.43;;;;;;;;;;4961588;28;20459;-64
2023/01/26 03:13:00;;;;;;;30.63;15.17;;;;;;;;;;4962811;28;20859;-65
2023/01/26 03:15:42;;;;;;;27.50;13.90;;;;;;;;;;4962852;28;20919;-65
2023/01/26 03:29:38;;;;;;;30.13;14.40;;;;;;;;;;4946368;28;20497;-65
2023/01/26 03:32:22;;;;;;;33.33;14.93;;;;;;;;;;4961196;28;20521;-65
2023/01/26 03:34:50;;;;;;;30.47;14.47;;;;;;;;;;4962490;28;20493;-65
2023/01/26 03:37:21;;;;;;;30.90;14.83;;;;;;;;;;4964048;28;20942;-65
2023/01/26 03:56:55;;;;;;;27.57;13.87;;;;;;;;;;4947876;28;20615;-65
2023/01/26 03:59:36;;;;;;;25.27;13.07;;;;;;;;;;4950274;28;21106;-65
2023/01/26 04:10:27;;;;;;;34.43;14.63;;;;;;;;;;4938935;28;20503;-64
2023/01/26 04:21:35;;;;;;;30.93;14.37;;;;;;;;;;4949149;28;20529;-65
2023/01/26 04:24:28;;;;;;;33.73;15.07;;;;;;;;;;4963544;28;20456;-65
2023/01/26 04:27:12;;;;;;;33.63;15.37;;;;;;;;;;4966768;28;20510;-65
2023/01/26 04:29:39;;;;;;;33.13;15.93;;;;;;;;;;4964154;28;20522;-65
2023/01/26 04:32:25;;;;;;;32.17;15.00;;;;;;;;;;4965463;28;20448;-64
2023/01/26 04:34:52;;;;;;;33.13;16.00;;;;;;;;;;4963421;28;20452;-65
2023/01/26 04:37:37;;;;;;;30.80;14.97;;;;;;;;;;4973817;28;20443;-65
2023/01/26 04:40:04;;;;;;;32.80;15.67;;;;;;;;;;4964109;28;20462;-65
2023/01/26 04:42:32;;;;;;;32.67;15.33;;;;;;;;;;4963854;28;20471;-65
2023/01/26 04:45:01;;;;;;;31.73;16.13;;;;;;;;;;4965726;28;20487;-65
2023/01/26 04:47:29;;;;;;;36.77;16.87;;;;;;;;;;4963910;28;20874;-65
2023/01/26 04:49:56;;;;;;;48.40;22.93;;;;;;;;;;4964697;28;20463;-65
2023/01/26 04:52:22;;;;;;;36.50;19.67;;;;;;;;;;4948764;28;20456;-65
2023/01/26 04:54:50;;;;;;;40.10;19.53;;;;;;;;;;4966765;28;20470;-65
2023/01/26 04:57:35;;;;;;;31.93;17.23;;;;;;;;;;4962581;28;20950;-65
2023/01/26 05:00:03;;;;;;;30.80;15.67;;;;;;;;;;4964974;28;20460;-65
2023/01/26 05:02:50;;;;;;;30.13;14.43;;;;;;;;;;4963202;28;20455;-65
2023/01/26 05:05:17;;;;;;;30.73;14.67;;;;;;;;;;4965084;28;20539;-65
2023/01/26 05:07:44;;;;;;;35.07;17.23;;;;;;;;;;4963412;28;20957;-65
2023/01/26 05:10:12;;;;;;;37.60;17.77;;;;;;;;;;4962881;28;20463;-65
2023/01/26 05:13:01;;;;;;;31.27;14.47;;;;;;;;;;4964702;28;20534;-65
2023/01/26 05:15:53;;;;;;;32.10;14.27;;;;;;;;;;4946756;28;20448;-65
2023/01/26 05:18:36;;;;;;;30.07;14.93;;;;;;;;;;4933520;28;20915;-65
2023/01/26 05:21:34;;;;;;;34.90;15.50;;;;;;;;;;4925829;28;20443;-65
2023/01/26 05:24:01;;;;;;;40.00;19.17;;;;;;;;;;4964953;28;20815;-65
2023/01/26 05:27:19;;;;;;;36.30;18.50;;;;;;;;;;4963796;28;20496;-65
2023/01/26 05:29:35;;;;;;;28.77;14.87;;;;;;;;;;4964363;28;20459;-65
2023/01/26 05:32:19;;;;;;;31.30;15.20;;;;;;;;;;4963868;28;20586;-65
2023/01/26 05:34:45;;;;;;;31.83;15.67;;;;;;;;;;4948535;28;20487;-65
2023/01/26 05:37:13;;;;;;;32.67;15.90;;;;;;;;;;4964497;28;20479;-65
2023/01/26 05:39:43;;;;;;;29.53;15.17;;;;;;;;;;4965342;28;20455;-65
2023/01/26 05:42:10;;;;;;;33.10;15.27;;;;;;;;;;4964047;28;20598;-65
2023/01/26 05:45:20;;;;;;;32.80;14.70;;;;;;;;;;4931964;28;20526;-65
2023/01/26 05:47:49;;;;;;;34.70;15.77;;;;;;;;;;4962564;28;20467;-65
2023/01/26 05:50:34;;;;;;;30.50;14.43;;;;;;;;;;4964031;28;20452;-65
2023/01/26 05:53:15;;;;;;;32.73;15.30;;;;;;;;;;4946659;28;20456;-65
2023/01/26 05:55:42;;;;;;;31.47;14.80;;;;;;;;;;4929243;28;20472;-65
2023/01/26 05:58:09;;;;;;;33.70;16.03;;;;;;;;;;4963770;28;20460;-65
2023/01/26 06:00:38;;;;;;;34.33;16.60;;;;;;;;;;4962044;28;20451;-65
2023/01/26 06:03:28;;;;;;;37.47;15.47;;;;;;;;;;4961420;28;20503;-65
2023/01/26 06:05:55;;;;;;;35.83;17.37;;;;;;;;;;4964125;28;20486;-65
2023/01/26 06:08:30;;;;;;;39.03;17.33;;;;;;;;;;4962485;28;20534;-65
2023/01/26 06:11:20;;;;;;;34.03;15.70;;;;;;;;;;4962909;28;20460;-65
2023/01/26 06:14:19;;;;;;;42.17;19.50;;;;;;;;;;4940142;28;20462;-65
2023/01/26 06:16:46;;;;;;;34.20;15.07;;;;;;;;;;4963278;28;21475;-65
2023/01/26 06:19:13;;;;;;;38.23;17.23;;;;;;;;;;4941226;28;20463;-65
2023/01/26 06:21:43;;;;;;;32.43;15.83;;;;;;;;;;4961602;28;20546;-65
2023/01/26 06:24:11;;;;;;;29.07;14.17;;;;;;;;;;4963424;28;20472;-65
2023/01/26 06:26:38;;;;;;;31.00;15.00;;;;;;;;;;4962051;28;20543;-65
2023/01/26 06:29:04;;;;;;;34.67;16.83;;;;;;;;;;4963520;28;20467;-65
2023/01/26 06:31:35;;;;;;;43.93;22.70;;;;;;;;;;4962826;28;20475;-65
2023/01/26 06:34:04;;;;;;;30.77;15.03;;;;;;;;;;4961175;28;20479;-65
2023/01/26 06:36:34;;;;;;;35.57;17.53;;;;;;;;;;4961269;28;20463;-65
2023/01/26 06:39:03;;;;;;;36.07;20.20;;;;;;;;;;4995169;28;20451;-65
2023/01/26 06:41:30;;;;;;;30.27;15.20;;;;;;;;;;4965357;28;20478;-65
2023/01/26 06:43:56;;;;;;;23.37;11.97;;;;;;;;;;4999222;28;20467;-65
2023/01/26 06:46:23;;;;;;;25.77;12.00;;;;;;;;;;4964385;28;20466;-65
2023/01/26 06:48:52;;;;;;;26.53;12.50;;;;;;;;;;4951343;28;20454;-65
2023/01/26 06:51:19;;;;;;;25.37;12.03;;;;;;;;;;4963118;28;21003;-65
2023/01/26 06:53:50;;;;;;;27.10;12.40;;;;;;;;;;4945496;28;20459;-65
2023/01/26 06:56:38;;;;;;;24.73;11.13;;;;;;;;;;4926532;28;20474;-65
2023/01/26 06:59:14;;;;;;;26.70;12.40;;;;;;;;;;4962521;28;20614;-65
2023/01/26 07:02:21;;;;;;;23.80;11.60;;;;;;;;;;4961683;28;20451;-65
2023/01/26 07:04:48;;;;;;;27.40;12.73;;;;;;;;;;4964465;28;20867;-65
2023/01/26 07:07:15;;;;;;;28.80;13.57;;;;;;;;;;4965823;28;20464;-65
2023/01/26 07:09:42;;;;;;;24.33;12.60;;;;;;;;;;4984082;28;20527;-65
2023/01/26 07:12:09;;;;;;;25.00;11.80;;;;;;;;;;4982200;28;20482;-65
2023/01/26 07:14:53;;;;;;;31.63;13.57;;;;;;;;;;4987899;28;20532;-65
2023/01/26 07:17:20;;;;;;;27.90;13.00;;;;;;;;;;4986220;28;20458;-65
2023/01/26 07:19:47;;;;;;;25.63;12.47;;;;;;;;;;4972468;28;20470;-65
2023/01/26 07:22:14;;;;;;;28.00;13.53;;;;;;;;;;4987670;28;20451;-64
2023/01/26 07:24:41;;;;;;;30.43;13.37;;;;;;;;;;4986116;28;20447;-65
2023/01/26 07:27:25;;;;;;;31.23;14.70;;;;;;;;;;4986914;28;20462;-65
2023/01/26 07:29:52;;;;;;;33.67;14.17;;;;;;;;;;4967423;28;20470;-64
2023/01/26 07:32:18;;;;;;;32.57;14.40;;;;;;;;;;4953346;28;20475;-65
2023/01/26 07:34:45;;;;;;;28.20;14.50;;;;;;;;;;4965923;28;20606;-65
2023/01/26 07:37:12;;;;;;;34.67;14.87;;;;;;;;;;4969990;28;20788;-65
2023/01/26 07:39:38;;;;;;;33.43;14.93;;;;;;;;;;4985466;28;20509;-65
2023/01/26 07:42:05;;;;;;;38.47;15.37;;;;;;;;;;4987131;28;20462;-64
2023/01/26 07:44:43;;;;;;;35.47;14.87;;;;;;;;;;4968029;28;20465;-65
2023/01/26 07:47:27;;;;;;;33.50;14.40;;;;;;;;;;4987072;28;20455;-64
2023/01/26 07:49:54;;;;;;;37.43;15.57;;;;;;;;;;4985215;28;20459;-65
2023/01/26 07:52:20;;;;;;;39.80;15.57;;;;;;;;;;4987017;28;20463;-64
2023/01/26 07:54:47;;;;;;;37.83;15.03;;;;;;;;;;4969627;28;20546;-64
2023/01/26 07:57:13;;;;;;;42.67;15.57;;;;;;;;;;4967970;28;20998;-65
2023/01/26 07:59:40;;;;;;;35.73;15.20;;;;;;;;;;4964725;28;20471;-65
2023/01/26 08:02:08;;;;;;;39.00;15.93;;;;;;;;;;4967159;28;20471;-64
2023/01/26 08:04:35;;;;;;;38.43;15.80;;;;;;;;;;4948704;28;20820;-65
2023/01/26 08:07:01;;;;;;;35.00;15.97;;;;;;;;;;4967451;28;20471;-65
2023/01/26 08:09:28;;;;;;;40.07;16.83;;;;;;;;;;4965833;28;20468;-65
2023/01/26 08:11:56;;;;;;;39.90;17.23;;;;;;;;;;4967381;28;20486;-64
2023/01/26 08:14:23;;;;;;;47.57;16.93;;;;;;;;;;4933811;28;20805;-65
2023/01/26 08:16:50;;;;;;;35.87;15.97;;;;;;;;;;4967640;28;20549;-64
2023/01/26 08:19:16;;;;;;;41.40;17.83;;;;;;;;;;4965197;28;20474;-65
2023/01/26 08:21:43;;;;;;;44.33;17.90;;;;;;;;;;4966694;28;20455;-65
2023/01/26 08:24:10;;;;;;;41.93;16.00;;;;;;;;;;4964328;28;20459;-65
2023/01/26 08:26:37;;;;;;;45.40;17.47;;;;;;;;;;4966909;28;20585;-64
2023/01/26 08:29:21;;;;;;;43.53;17.43;;;;;;;;;;4965357;28;20487;-65
2023/01/26 08:31:48;;;;;;;43.87;18.57;;;;;;;;;;4967121;28;20487;-65
2023/01/26 08:34:15;;;;;;;45.77;19.30;;;;;;;;;;4965067;28;20468;-65
2023/01/26 08:36:41;;;;;;;55.40;19.97;;;;;;;;;;4966724;28;21443;-65
2023/01/26 08:39:08;;;;;;;55.10;21.07;;;;;;;;;;4982906;28;20459;-65
2023/01/26 08:41:35;;;;;;;50.27;20.60;;;;;;;;;;4986445;28;20459;-65
2023/01/26 08:44:01;;;;;;;55.27;22.27;;;;;;;;;;4977597;28;20464;-65
2023/01/26 08:46:28;;;;;;;48.83;19.90;;;;;;;;;;4966564;28;20530;-64
2023/01/26 08:48:55;;;;;;;48.50;19.60;;;;;;;;;;4964492;28;20460;-65
2023/01/26 08:51:24;;;;;;;56.10;21.73;;;;;;;;;;4964926;28;20819;-65
2023/01/26 08:53:53;;;;;;;51.47;20.33;;;;;;;;;;4966775;28;20542;-64
2023/01/26 08:56:37;;;;;;;53.67;21.47;;;;;;;;;;4964874;28;20452;-65
2023/01/26 08:59:03;;;;;;;53.53;21.27;;;;;;;;;;4966343;28;20942;-65
2023/01/26 09:01:48;;;;;;;49.00;19.37;;;;;;;;;;4963953;28;20533;-65
2023/01/26 09:04:16;;;;;;;48.50;19.60;;;;;;;;;;4966184;28;20970;-65
2023/01/26 09:06:43;;;;;;;52.77;20.53;;;;;;;;;;4964563;28;20870;-64
2023/01/26 09:09:12;;;;;;;57.10;21.17;;;;;;;;;;4984703;28;20463;-64
2023/01/26 09:11:39;;;;;;;54.03;21.70;;;;;;;;;;4984618;28;20458;-65
2023/01/26 09:14:05;;;;;;;63.80;23.17;;;;;;;;;;4985626;28;21388;-64
2023/01/26 09:16:32;;;;;;;56.90;21.87;;;;;;;;;;4983996;28;20467;-65
2023/01/26 09:18:59;;;;;;;61.70;21.67;;;;;;;;;;4985000;28;20461;-65
2023/01/26 09:21:25;;;;;;;62.60;23.13;;;;;;;;;;4983845;28;21024;-65
2023/01/26 09:23:52;;;;;;;55.40;20.03;;;;;;;;;;4985222;28;20474;-64
2023/01/26 09:26:19;;;;;;;57.07;21.47;;;;;;;;;;4950794;28;20464;-65
2023/01/26 09:28:48;;;;;;;55.33;22.17;;;;;;;;;;4965374;28;20472;-65
2023/01/26 09:31:15;;;;;;;58.03;22.47;;;;;;;;;;4964474;28;21018;-65
2023/01/26 09:33:41;;;;;;;58.50;22.27;;;;;;;;;;4965735;28;20519;-64
2023/01/26 09:36:26;;;;;;;58.33;22.20;;;;;;;;;;4963450;28;20466;-65
2023/01/26 09:38:53;;;;;;;64.87;22.20;;;;;;;;;;4964869;28;20458;-65
2023/01/26 09:41:39;;;;;;;62.50;22.47;;;;;;;;;;4983763;28;20455;-65
2023/01/26 09:44:09;;;;;;;59.70;20.53;;;;;;;;;;4969672;28;20455;-65
2023/01/26 09:46:54;;;;;;;55.93;20.77;;;;;;;;;;4949164;28;20448;-65
2023/01/26 09:49:20;;;;;;;56.23;22.17;;;;;;;;;;4965396;28;20491;-65
2023/01/26 09:52:04;;;;;;;58.90;22.27;;;;;;;;;;4963833;28;20456;-65
2023/01/26 09:54:36;;;;;;;68.17;22.30;;;;;;;;;;4965124;28;20456;-65
2023/01/26 09:57:25;;;;;;;63.40;22.97;;;;;;;;;;4962452;28;20522;-65
2023/01/26 09:59:55;;;;;;;63.80;22.07;;;;;;;;;;4947069;28;20827;-64
2023/01/26 10:02:24;;;;;;;67.13;24.53;;;;;;;;;;4963493;28;21089;-65
2023/01/26 10:04:52;;;;;;;64.87;23.33;;;;;;;;;;4945780;28;20463;-65
2023/01/26 10:07:18;;;;;;;60.17;22.07;;;;;;;;;;4948131;28;20494;-65
2023/01/26 10:09:48;;;;;;;70.23;23.47;;;;;;;;;;4963652;28;20971;-65
2023/01/26 10:12:17;;;;;;;64.37;23.30;;;;;;;;;;4945817;28;20471;-65
2023/01/26 10:14:45;;;;;;;65.43;22.97;;;;;;;;;;4964580;28;20479;-64
2023/01/26 10:17:30;;;;;;;72.47;22.87;;;;;;;;;;4962975;28;20455;-65
2023/01/26 10:20:03;;;;;;;62.00;19.73;;;;;;;;;;4964805;28;20468;-65
2023/01/26 10:22:43;;;;;;;61.37;23.03;;;;;;;;;;4963613;28;20464;-65
2023/01/26 10:25:16;;;;;;;75.10;24.77;;;;;;;;;;4946296;28;20468;-65
2023/01/26 10:27:44;;;;;;;56.07;22.63;;;;;;;;;;4963175;28;20448;-65
2023/01/26 10:30:12;;;;;;;72.63;24.27;;;;;;;;;;4946515;28;20466;-64
2023/01/26 10:32:40;;;;;;;69.67;26.07;;;;;;;;;;4965201;28;20448;-65
2023/01/26 10:35:12;;;;;;;68.03;24.60;;;;;;;;;;4963183;28;20463;-65
2023/01/26 10:37:39;;;;;;;77.47;24.70;;;;;;;;;;4936159;28;20454;-65
2023/01/26 10:40:09;;;;;;;75.57;26.20;;;;;;;;;;4984051;28;20482;-65
2023/01/26 10:42:36;;;;;;;70.17;23.87;;;;;;;;;;4982066;28;20534;-65
2023/01/26 10:45:04;;;;;;;74.73;24.10;;;;;;;;;;4984032;28;20470;-65
2023/01/26 10:47:30;;;;;;;77.63;25.13;;;;;;;;;;4982313;28;20502;-65
2023/01/26 10:50:16;;;;;;;76.13;24.27;;;;;;;;;;4970851;28;20475;-65
2023/01/26 10:53:03;;;;;;;74.20;24.30;;;;;;;;;;4946969;28;20459;-65
2023/01/26 10:56:03;;;;;;;75.57;24.97;;;;;;;;;;4963673;28;20455;-65
2023/01/26 10:58:45;;;;;;;78.63;25.97;;;;;;;;;;4947238;28;20459;-65
2023/01/26 11:01:14;;;;;;;71.33;25.27;;;;;;;;;;4961703;28;20444;-65
2023/01/26 11:03:41;;;;;;;79.20;25.90;;;;;;;;;;4962447;28;20455;-65
2023/01/26 11:06:11;;;;;;;82.30;26.40;;;;;;;;;;4947490;28;21672;-65
2023/01/26 11:08:38;;;;;;;76.50;24.10;;;;;;;;;;4963047;28;20898;-65
2023/01/26 11:11:09;;;;;;;71.30;22.83;;;;;;;;;;4964422;28;20447;-65
2023/01/26 11:13:36;;;;;;;74.10;22.70;;;;;;;;;;4961386;28;20502;-64
2023/01/26 11:16:20;;;;;;;57.17;19.57;;;;;;;;;;4963987;28;21003;-64
2023/01/26 11:18:47;;;;;;;53.70;18.93;;;;;;;;;;4945143;28;20463;-64
2023/01/26 11:21:37;;;;;;;63.67;21.07;;;;;;;;;;4963911;28;20440;-64
2023/01/26 11:24:07;;;;;;;62.53;21.83;;;;;;;;;;4961070;28;20456;-64
2023/01/26 11:26:53;;;;;;;64.17;19.97;;;;;;;;;;4962242;28;20531;-65
2023/01/26 11:29:38;;;;;;;60.60;19.97;;;;;;;;;;4963634;28;20535;-64
2023/01/26 11:32:28;;;;;;;63.30;19.87;;;;;;;;;;4948059;28;20456;-64
2023/01/26 11:35:04;;;;;;;70.50;21.93;;;;;;;;;;4962014;28;20470;-64
2023/01/26 11:37:40;;;;;;;73.40;22.53;;;;;;;;;;4950116;28;20447;-64
2023/01/26 11:40:08;;;;;;;71.90;23.70;;;;;;;;;;4982125;28;20457;-65
2023/01/26 11:42:38;;;;;;;65.37;21.97;;;;;;;;;;4981832;28;20790;-64
2023/01/26 11:45:07;;;;;;;58.13;19.00;;;;;;;;;;4983463;28;20538;-64
2023/01/26 11:47:38;;;;;;;66.10;19.70;;;;;;;;;;4953896;28;20459;-64
2023/01/26 11:50:23;;;;;;;58.03;20.17;;;;;;;;;;4944615;28;21096;-64
2023/01/26 11:52:54;;;;;;;57.17;19.47;;;;;;;;;;4962530;28;21046;-64
2023/01/26 11:55:57;;;;;;;67.60;20.57;;;;;;;;;;4946898;28;20862;-65
2023/01/26 11:58:27;;;;;;;69.60;22.13;;;;;;;;;;4962435;28;20466;-65
2023/01/26 12:00:55;;;;;;;67.73;23.53;;;;;;;;;;4947686;28;20947;-65
2023/01/26 12:03:22;;;;;;;69.47;22.30;;;;;;;;;;4937249;28;20455;-64
2023/01/26 12:05:53;;;;;;;64.93;21.83;;;;;;;;;;4965569;28;20468;-65
2023/01/26 12:08:43;;;;;;;55.57;21.37;;;;;;;;;;4952430;28;20460;-65
2023/01/26 12:11:22;;;;;;;58.63;20.63;;;;;;;;;;4964470;28;20459;-65
2023/01/26 12:13:51;;;;;;;62.17;21.90;;;;;;;;;;4965801;28;20471;-65
2023/01/26 12:16:29;;;;;;;60.97;20.47;;;;;;;;;;4947966;28;21012;-65
2023/01/26 12:19:32;;;;;;;61.67;21.67;;;;;;;;;;4965061;28;20459;-65
2023/01/26 12:22:01;;;;;;;60.83;20.23;;;;;;;;;;4967056;28;20469;-64
2023/01/26 12:24:35;;;;;;;65.93;21.83;;;;;;;;;;4948263;28;20950;-65
2023/01/26 12:27:27;;;;;;;62.50;20.53;;;;;;;;;;4949699;28;20451;-64
2023/01/26 12:29:58;;;;;;;60.27;21.40;;;;;;;;;;4948361;28;20460;-65
2023/01/26 12:32:24;;;;;;;65.53;20.60;;;;;;;;;;4965375;28;20460;-65
2023/01/26 12:34:51;;;;;;;63.13;19.40;;;;;;;;;;4966505;28;20471;-64
2023/01/26 12:37:40;;;;;;;59.93;20.40;;;;;;;;;;4938092;28;20521;-64
2023/01/26 12:40:11;;;;;;;65.67;20.53;;;;;;;;;;4984382;28;20535;-64
2023/01/26 12:42:40;;;;;;;61.77;20.73;;;;;;;;;;4950992;28;20455;-64
2023/01/26 12:45:09;;;;;;;68.13;21.50;;;;;;;;;;4976613;28;20549;-65
2023/01/26 12:47:43;;;;;;;62.73;20.87;;;;;;;;;;4969375;28;21009;-64
2023/01/26 12:50:22;;;;;;;65.87;21.27;;;;;;;;;;4949224;28;20498;-65
2023/01/26 12:52:54;;;;;;;65.70;21.87;;;;;;;;;;4948019;28;20459;-64
2023/01/26 12:55:40;;;;;;;78.63;22.83;;;;;;;;;;4964636;28;20514;-64
2023/01/26 12:58:30;;;;;;;67.37;21.57;;;;;;;;;;4966250;28;20463;-65
2023/01/26 13:01:15;;;;;;;72.10;22.50;;;;;;;;;;4962282;28;20440;-64
2023/01/26 13:03:54;;;;;;;78.70;23.67;;;;;;;;;;4947220;28;20555;-65
2023/01/26 13:06:23;;;;;;;77.37;25.27;;;;;;;;;;4945872;28;21200;-64
2023/01/26 13:09:03;;;;;;;90.37;26.47;;;;;;;;;;4947773;28;20468;-64
2023/01/26 13:11:41;;;;;;;90.33;25.87;;;;;;;;;;4963053;28;20871;-64
2023/01/26 13:14:27;;;;;;;75.50;24.13;;;;;;;;;;4963312;28;20456;-65
2023/01/26 13:16:54;;;;;;;78.10;23.53;;;;;;;;;;4965700;28;20487;-64
2023/01/26 13:19:39;;;;;;;75.13;22.53;;;;;;;;;;4964616;28;20534;-64
2023/01/26 13:22:25;;;;;;;93.57;26.07;;;;;;;;;;4965318;28;20514;-64
2023/01/26 13:24:55;;;;;;;73.23;23.70;;;;;;;;;;4964273;28;20455;-66
2023/01/26 13:27:29;;;;;;;77.33;23.43;;;;;;;;;;4963808;28;20459;-66
2023/01/26 13:29:55;;;;;;;75.20;22.77;;;;;;;;;;4947499;28;20455;-64
2023/01/26 13:32:22;;;;;;;72.70;23.27;;;;;;;;;;4966002;28;20467;-64
2023/01/26 13:34:56;;;;;;;77.77;23.03;;;;;;;;;;4963599;28;20456;-66
2023/01/26 13:37:27;;;;;;;88.60;25.53;;;;;;;;;;4967417;28;20451;-64
2023/01/26 13:39:55;;;;;;;86.33;26.93;;;;;;;;;;4983029;28;20469;-64
2023/01/26 13:42:22;;;;;;;82.87;23.57;;;;;;;;;;4983470;28;20462;-64
2023/01/26 13:44:59;;;;;;;73.83;23.23;;;;;;;;;;4966140;28;20946;-64
2023/01/26 13:47:45;;;;;;;91.17;25.73;;;;;;;;;;4946930;28;20458;-64
2023/01/26 13:50:21;;;;;;;85.00;24.60;;;;;;;;;;4947770;28;20460;-64
2023/01/26 13:52:47;;;;;;;76.60;23.50;;;;;;;;;;4963885;28;20463;-64
2023/01/26 13:55:21;;;;;;;84.10;25.00;;;;;;;;;;4932452;28;20453;-64
2023/01/26 13:57:48;;;;;;;81.33;23.53;;;;;;;;;;4946952;28;20547;-64
2023/01/26 14:00:32;;;;;;;85.60;23.90;;;;;;;;;;4948762;28;20447;-64
2023/01/26 14:02:59;;;;;;;75.40;21.87;;;;;;;;;;4981933;28;20467;-64
2023/01/26 14:05:26;;;;;;;76.27;22.23;;;;;;;;;;4984920;28;20557;-64
2023/01/26 14:07:53;;;;;;;82.17;23.73;;;;;;;;;;4982872;28;20479;-64
2023/01/26 14:10:20;;;;;;;84.87;21.80;;;;;;;;;;4984353;28;20455;-65
2023/01/26 14:13:04;;;;;;;79.03;21.40;;;;;;;;;;4982328;28;20451;-64
2023/01/26 14:15:31;;;;;;;77.67;23.07;;;;;;;;;;4984771;28;20513;-64
2023/01/26 14:17:59;;;;;;;81.57;24.20;;;;;;;;;;4982173;28;20466;-64
2023/01/26 14:20:26;;;;;;;77.03;22.83;;;;;;;;;;4965642;28;20522;-64
2023/01/26 14:23:12;;;;;;;87.13;25.17;;;;;;;;;;4982956;28;20529;-64
2023/01/26 14:25:40;;;;;;;79.37;24.47;;;;;;;;;;4982371;28;20470;-64
2023/01/26 14:28:11;;;;;;;85.13;24.83;;;;;;;;;;4967401;28;20542;-64
2023/01/26 14:30:38;;;;;;;90.23;25.47;;;;;;;;;;4965191;28;20451;-64
2023/01/26 14:33:22;;;;;;;93.03;25.03;;;;;;;;;;4982356;28;20486;-64
2023/01/26 14:35:56;;;;;;;87.70;26.80;;;;;;;;;;4982660;28;20455;-64
2023/01/26 14:38:23;;;;;;;85.90;26.33;;;;;;;;;;4982633;28;20534;-65
2023/01/26 14:40:50;;;;;;;92.57;27.70;;;;;;;;;;4983620;28;20822;-64
2023/01/26 14:43:17;;;;;;;90.43;27.87;;;;;;;;;;4982241;28;20542;-64
2023/01/26 14:46:06;;;;;;;80.97;25.80;;;;;;;;;;4968093;28;20443;-64
2023/01/26 14:48:37;;;;;;;89.63;26.73;;;;;;;;;;4982692;28;20490;-64
2023/01/26 14:51:23;;;;;;;104.23;28.63;;;;;;;;;;4981088;28;20451;-64
2023/01/26 14:53:50;;;;;;;95.50;27.40;;;;;;;;;;4984251;28;21110;-64
2023/01/26 14:56:18;;;;;;;105.30;28.73;;;;;;;;;;4982340;28;20447;-64
2023/01/26 14:58:48;;;;;;;107.13;29.57;;;;;;;;;;4964952;28;20470;-64
2023/01/26 15:01:19;;;;;;;88.80;28.00;;;;;;;;;;4983385;28;21305;-64
2023/01/26 15:03:45;;;;;;;114.80;32.20;;;;;;;;;;4981999;28;21057;-64
2023/01/26 15:06:12;;;;;;;101.03;30.27;;;;;;;;;;4983743;28;20458;-64
2023/01/26 15:08:39;;;;;;;126.30;34.73;;;;;;;;;;4982881;28;20462;-64
2023/01/26 15:14:38;;;;;;;109.67;30.23;;;;;;;;;;4981662;28;20493;-64
2023/01/26 15:17:25;;;;;;;93.23;27.37;;;;;;;;;;4981138;28;20965;-64
2023/01/26 15:19:52;;;;;;;100.80;28.37;;;;;;;;;;4981922;28;20821;-64
2023/01/26 15:22:20;;;;;;;92.53;26.93;;;;;;;;;;4983622;28;20966;-64
2023/01/26 15:24:57;;;;;;;94.93;28.37;;;;;;;;;;4982148;28;20466;-64
2023/01/26 15:27:24;;;;;;;97.67;27.50;;;;;;;;;;4964618;28;20450;-64
2023/01/26 15:29:56;;;;;;;88.77;27.20;;;;;;;;;;4966609;28;20482;-64
2023/01/26 15:32:30;;;;;;;95.00;26.43;;;;;;;;;;4981667;28;20977;-64
2023/01/26 15:35:16;;;;;;;91.63;28.50;;;;;;;;;;4969374;28;20466;-64
2023/01/26 15:37:43;;;;;;;82.17;24.93;;;;;;;;;;4985969;28;21048;-64
2023/01/26 15:40:10;;;;;;;82.10;26.20;;;;;;;;;;4965918;28;20459;-64
2023/01/26 15:42:40;;;;;;;85.57;27.30;;;;;;;;;;4967863;28;20467;-64
2023/01/26 15:45:15;;;;;;;96.03;28.83;;;;;;;;;;4966354;28;20542;-64
2023/01/26 15:48:00;;;;;;;82.37;26.63;;;;;;;;;;4950149;28;20958;-64
2023/01/26 15:50:27;;;;;;;82.20;25.70;;;;;;;;;;4968229;28;20813;-64
2023/01/26 15:53:15;;;;;;;79.83;26.33;;;;;;;;;;4965294;28;20448;-64
2023/01/26 15:55:43;;;;;;;72.63;25.57;;;;;;;;;;4976697;28;20471;-64
2023/01/26 15:58:10;;;;;;;86.20;25.83;;;;;;;;;;4985267;28;20458;-64
2023/01/26 16:00:36;;;;;;;79.77;26.27;;;;;;;;;;4987412;28;32081;-64
2023/01/26 16:03:05;;;;;;;76.97;26.47;;;;;;;;;;4984759;28;20450;-64
2023/01/26 16:05:32;;;;;;;79.87;26.87;;;;;;;;;;4984455;28;20459;-64
2023/01/26 16:07:59;;;;;;;81.73;29.30;;;;;;;;;;4987085;28;21027;-64
2023/01/26 16:10:25;;;;;;;77.30;26.93;;;;;;;;;;4985063;28;20455;-64
2023/01/26 16:12:52;;;;;;;81.90;28.00;;;;;;;;;;4985628;28;20524;-64